createdAt,value
2023-01-26T00:00:07.820Z,1.59
2023-01-26T00:03:10.157Z,1.54
2023-01-26T00:06:14.803Z,1.42
2023-01-26T00:09:16.979Z,1.22
2023-01-26T00:12:19.196Z,1.33
2023-01-26T00:15:21.388Z,1.46
2023-01-26T00:18:23.565Z,1.48
2023-01-26T00:21:25.771Z,1.45
2023-01-26T00:24:27.931Z,1.11
2023-01-26T00:27:32.258Z,1.06
2023-01-26T00:30:34.505Z,1.19
2023-01-26T00:33:36.823Z,1.20
2023-01-26T00:36:38.995Z,1.04
2023-01-26T00:39:41.132Z,1.00
2023-01-26T00:42:43.308Z,0.90
2023-01-26T00:45:45.481Z,1.09
2023-01-26T00:48:47.686Z,1.34
2023-01-26T00:51:49.888Z,1.31
2023-01-26T00:54:52.051Z,1.38
2023-01-26T00:57:54.266Z,1.40
2023-01-26T01:00:56.450Z,1.29
2023-01-26T01:03:58.733Z,1.31
2023-01-26T01:07:00.972Z,1.51
2023-01-26T01:10:03.549Z,1.26
2023-01-26T01:13:05.768Z,1.15
2023-01-26T01:16:09.355Z,1.06
2023-01-26T01:19:15.429Z,1.26
2023-01-26T01:22:17.661Z,1.09
2023-01-26T01:25:19.926Z,1.10
2023-01-26T01:28:22.133Z,1.23
2023-01-26T01:31:25.590Z,1.28
2023-01-26T01:34:27.968Z,1.42
2023-01-26T01:37:30.492Z,1.27
2023-01-26T01:40:32.741Z,1.24
2023-01-26T07:17:59.059Z,0.02
2023-01-26T07:21:02.494Z,0.09
2023-01-26T07:24:05.367Z,0.01
2023-01-26T07:27:07.579Z,0.00
2023-01-26T07:30:11.196Z,0.08
2023-01-26T07:33:13.546Z,0.09
2023-01-26T07:36:15.773Z,-0.02
2023-01-26T07:39:17.948Z,0.04
2023-01-26T07:42:20.213Z,0.28
2023-01-26T07:45:22.429Z,0.18
2023-01-26T07:48:24.960Z,0.25
2023-01-26T07:51:27.113Z,0.43
2023-01-26T07:54:29.354Z,0.25
2023-01-26T07:57:32.037Z,0.23
2023-01-26T08:00:34.207Z,0.23
2023-01-26T08:03:36.816Z,0.18
2023-01-26T08:06:39.005Z,0.17
2023-01-26T08:09:41.307Z,0.23
2023-01-26T08:12:43.505Z,0.21
2023-01-26T08:15:45.773Z,0.32
2023-01-26T08:18:48.033Z,0.24
2023-01-26T08:21:50.567Z,0.52
2023-01-26T08:24:52.785Z,0.42
2023-01-26T08:27:55.213Z,0.59
2023-01-26T08:31:20.193Z,0.64
2023-01-26T08:34:26.551Z,0.76
2023-01-26T08:37:28.862Z,0.69
2023-01-26T08:40:31.397Z,0.36
2023-01-26T08:43:34.605Z,0.40
2023-01-26T08:46:37.345Z,0.23
2023-01-26T08:49:39.577Z,0.43
2023-01-26T08:52:41.720Z,0.25
2023-01-26T08:55:43.963Z,0.34
2023-01-26T08:58:46.417Z,0.37
2023-01-26T09:01:51.122Z,0.48
2023-01-26T09:04:53.448Z,0.29
2023-01-26T09:07:55.677Z,0.33
2023-01-26T09:10:57.903Z,0.61
2023-01-26T09:14:00.122Z,0.68
2023-01-26T09:17:02.341Z,0.69
2023-01-26T09:20:05.974Z,0.69
2023-01-26T09:23:08.629Z,0.50
2023-01-26T09:26:11.146Z,0.59
2023-01-26T09:29:13.299Z,0.81
2023-01-26T09:32:15.655Z,0.85
2023-01-26T09:35:18.355Z,1.00
2023-01-26T09:38:20.912Z,0.95
2023-01-26T09:41:39.558Z,1.11
2023-01-26T09:44:55.373Z,0.91
2023-01-26T09:48:15.753Z,0.77
2023-01-26T09:51:30.251Z,0.59
2023-01-26T09:54:39.351Z,0.89
2023-01-26T09:57:50.462Z,0.64
2023-01-26T10:00:58.179Z,0.80
2023-01-26T10:04:17.860Z,0.81
2023-01-26T10:07:20.227Z,0.91
2023-01-26T10:10:32.814Z,0.81
2023-01-26T10:13:35.287Z,1.05
2023-01-26T10:16:37.736Z,0.96
2023-01-26T10:19:45.327Z,0.94
2023-01-26T10:22:53.249Z,0.68
2023-01-26T10:26:16.783Z,0.68
2023-01-26T10:29:19.164Z,0.59
2023-01-26T10:32:21.538Z,0.58
2023-01-26T10:35:24.895Z,0.81
2023-01-26T10:38:28.120Z,1.08
2023-01-26T10:41:30.325Z,1.20
2023-01-26T10:44:34.979Z,1.12
2023-01-26T10:47:37.462Z,0.86
2023-01-26T10:50:39.698Z,1.05
2023-01-26T10:53:41.839Z,1.22
2023-01-26T10:56:49.458Z,1.26
2023-01-26T10:59:59.695Z,1.33
2023-01-26T11:03:14.099Z,1.44
2023-01-26T11:06:18.410Z,1.36
2023-01-26T11:09:31.737Z,1.70
2023-01-26T11:12:33.966Z,1.81
2023-01-26T11:15:41.771Z,1.95
2023-01-26T11:18:55.953Z,1.96
2023-01-26T11:22:10.652Z,1.99
2023-01-26T11:25:28.551Z,1.85
2023-01-26T11:29:04.893Z,1.91
2023-01-26T11:32:07.288Z,1.97
2023-01-26T11:35:32.763Z,2.11
2023-01-26T11:38:52.257Z,2.13
2023-01-26T11:42:10.892Z,2.17
2023-01-26T11:45:44.476Z,2.15
2023-01-26T11:49:22.392Z,2.17
2023-01-26T11:52:30.649Z,2.05
2023-01-26T11:55:53.956Z,2.10
2023-01-26T11:59:01.275Z,2.02
2023-01-26T12:02:24.676Z,1.95
2023-01-26T12:05:33.927Z,1.93
2023-01-26T12:08:59.479Z,1.99
2023-01-26T12:12:29.167Z,2.01
2023-01-26T12:15:37.471Z,2.04
2023-01-26T12:18:55.743Z,1.96
2023-01-26T12:22:06.511Z,1.99
2023-01-26T12:25:33.671Z,2.05
2023-01-26T12:29:09.395Z,1.77
2023-01-26T12:32:13.705Z,1.99
2023-01-26T12:35:25.613Z,2.00
2023-01-26T12:38:50.590Z,2.04
2023-01-26T12:42:10.907Z,2.00
2023-01-26T12:45:19.327Z,2.05
2023-01-26T12:48:30.408Z,2.06
2023-01-26T12:51:39.634Z,2.00
2023-01-26T12:54:54.421Z,1.92
2023-01-26T12:58:03.477Z,1.92
2023-01-26T13:01:09.804Z,1.81
2023-01-26T13:04:14.775Z,1.92
2023-01-26T13:07:35.100Z,1.85
2023-01-26T13:10:49.061Z,1.79
2023-01-26T13:13:56.043Z,1.81
2023-01-26T13:17:19.042Z,1.75
2023-01-26T13:20:33.240Z,1.74
2023-01-26T13:23:42.114Z,1.59
2023-01-26T13:26:45.235Z,1.46
2023-01-26T13:29:55.430Z,1.35
2023-01-26T13:33:23.268Z,1.52
2023-01-26T13:36:25.975Z,1.55
2023-01-26T13:39:32.063Z,1.46
2023-01-26T13:42:44.148Z,1.44
2023-01-26T13:46:23.390Z,1.54
2023-01-26T13:49:28.347Z,1.40
2023-01-26T13:52:30.617Z,1.48
2023-01-26T13:55:33.419Z,1.43
2023-01-26T13:58:35.694Z,1.51
2023-01-26T14:01:48.942Z,1.51
2023-01-26T14:04:55.675Z,1.50
2023-01-26T14:07:58.086Z,1.38
2023-01-26T14:11:03.270Z,1.42
2023-01-26T14:14:05.674Z,1.20
2023-01-26T14:17:09.725Z,1.25
2023-01-26T14:20:32.877Z,1.29
2023-01-26T14:23:36.463Z,1.18
2023-01-26T14:26:38.838Z,1.32
2023-01-26T14:29:41.117Z,1.19
2023-01-26T14:32:43.298Z,1.23
2023-01-26T14:36:00.332Z,1.26
2023-01-26T14:39:02.897Z,1.00
2023-01-26T14:42:05.498Z,1.09
2023-01-26T14:45:13.343Z,1.18
2023-01-26T14:48:18.435Z,1.28
2023-01-26T14:51:23.007Z,1.36
2023-01-26T14:54:31.193Z,1.37
2023-01-26T14:57:33.617Z,1.33
2023-01-26T15:00:37.050Z,1.30
2023-01-26T15:03:39.491Z,1.41
2023-01-26T15:06:41.771Z,1.15
2023-01-26T15:09:52.621Z,1.20
2023-01-26T15:12:59.544Z,1.24
2023-01-26T15:16:08.088Z,1.28
2023-01-26T15:19:23.885Z,1.19
2023-01-26T15:22:26.805Z,1.28
2023-01-26T15:25:38.191Z,1.18
2023-01-26T15:28:40.563Z,1.30
2023-01-26T15:31:43.156Z,1.13
2023-01-26T15:34:45.936Z,1.22
2023-01-26T15:37:48.344Z,1.22
2023-01-26T15:40:50.541Z,1.21
2023-01-26T15:43:52.718Z,1.33
2023-01-26T15:46:56.586Z,1.30
2023-01-26T15:49:58.917Z,1.21
2023-01-26T15:53:01.259Z,1.17
2023-01-26T15:56:03.550Z,1.34
2023-01-26T15:59:05.759Z,1.25
2023-01-26T16:02:18.990Z,1.16
2023-01-26T16:05:22.885Z,1.05
2023-01-26T16:08:25.207Z,1.28
2023-01-26T16:11:33.927Z,1.18
2023-01-26T16:14:36.107Z,1.03
2023-01-26T16:17:38.304Z,1.01
2023-01-26T16:20:42.444Z,1.12
2023-01-26T16:23:44.738Z,1.10
2023-01-26T16:26:46.994Z,1.16
2023-01-26T16:29:49.178Z,1.28
2023-01-26T16:32:52.147Z,1.21
2023-01-26T16:35:54.702Z,1.28
2023-01-26T16:38:56.928Z,1.31
2023-01-26T16:41:59.140Z,1.06
2023-01-26T16:45:01.370Z,0.97
2023-01-26T16:48:11.236Z,0.91
2023-01-26T16:51:30.293Z,0.97
2023-01-26T16:54:32.690Z,0.90
2023-01-26T16:57:34.906Z,0.89
2023-01-26T17:00:37.184Z,0.86
2023-01-26T17:03:39.568Z,0.66
2023-01-26T17:06:41.790Z,0.91
2023-01-26T17:09:44.048Z,1.12
2023-01-26T17:12:46.462Z,1.02
2023-01-26T17:15:48.754Z,0.61
2023-01-26T17:18:51.819Z,0.46
2023-01-26T17:21:54.086Z,0.47
2023-01-26T17:24:57.508Z,0.51
2023-01-26T17:28:01.353Z,0.47
2023-01-26T17:31:30.415Z,0.36
2023-01-26T17:34:32.665Z,0.22
2023-01-26T17:37:35.724Z,0.17
2023-01-26T17:40:38.207Z,0.23
2023-01-26T17:43:40.408Z,0.03
2023-01-26T17:46:42.617Z,0.13
2023-01-26T17:49:44.801Z,0.47
2023-01-26T17:52:47.179Z,0.52
2023-01-26T17:55:49.559Z,0.58
2023-01-26T17:58:54.417Z,0.56
2023-01-26T18:01:56.790Z,0.56
2023-01-26T18:04:59.339Z,0.55
2023-01-26T18:08:01.776Z,0.54
2023-01-26T18:11:06.573Z,0.37
2023-01-26T18:14:09.377Z,0.59
2023-01-26T18:17:11.821Z,0.72
2023-01-26T18:20:15.153Z,0.75
2023-01-26T18:23:17.789Z,0.94
2023-01-26T18:26:22.655Z,0.92
2023-01-26T18:29:24.987Z,0.79
2023-01-26T18:32:27.595Z,0.87
2023-01-26T18:35:30.136Z,0.90
2023-01-26T18:38:33.311Z,0.98
2023-01-26T18:41:35.809Z,1.10
2023-01-26T18:44:38.364Z,1.00
2023-01-26T18:47:40.701Z,0.82
2023-01-26T18:50:42.911Z,0.80
2023-01-26T18:53:45.554Z,0.57
2023-01-26T18:56:48.385Z,0.50
2023-01-26T18:59:51.006Z,0.69
2023-01-26T19:02:53.264Z,0.69
2023-01-26T19:05:58.048Z,0.60
2023-01-26T19:09:03.501Z,0.52
2023-01-26T19:12:06.332Z,0.45
2023-01-26T19:15:09.857Z,0.20
2023-01-26T19:18:12.649Z,0.05
2023-01-26T19:21:15.108Z,0.01
2023-01-26T19:24:17.582Z,0.02
2023-01-26T19:27:19.898Z,-0.03
2023-01-26T19:30:22.100Z,0.11
2023-01-26T19:33:24.326Z,0.11
2023-01-26T19:36:27.938Z,0.06
2023-01-26T19:39:31.172Z,-0.12
2023-01-26T19:42:33.717Z,-0.31
2023-01-26T19:45:36.216Z,-0.34
2023-01-26T19:48:39.846Z,-0.38
2023-01-26T19:51:42.388Z,-0.39
2023-01-26T19:54:45.080Z,-0.44
2023-01-26T19:57:47.349Z,-0.40
2023-01-26T20:00:49.912Z,-0.41
2023-01-26T20:04:14.025Z,-0.44
2023-01-26T20:07:16.460Z,-0.48
2023-01-26T20:10:19.208Z,-0.49
2023-01-26T20:13:21.656Z,-0.51
2023-01-26T20:16:24.980Z,-0.44
2023-01-26T20:19:27.994Z,-0.45
2023-01-26T20:22:33.621Z,-0.50
2023-01-26T20:25:37.219Z,-0.49
2023-01-26T20:28:40.231Z,-0.50
2023-01-26T20:31:42.841Z,-0.46
2023-01-26T20:34:45.679Z,-0.48
2023-01-26T20:37:47.947Z,-0.44
2023-01-26T20:40:50.406Z,-0.47
2023-01-26T20:44:00.870Z,-0.48
2023-01-26T20:47:04.496Z,-0.61
2023-01-26T20:50:08.601Z,-0.64
2023-01-26T20:53:11.002Z,-0.58
2023-01-26T20:56:14.204Z,-0.72
2023-01-26T20:59:16.862Z,-0.76
2023-01-26T21:02:19.344Z,-0.60
2023-01-26T21:05:21.805Z,-0.47
2023-01-26T21:08:24.408Z,-0.43
2023-01-26T21:11:30.670Z,-0.42
2023-01-26T21:14:33.301Z,-0.40
2023-01-26T21:17:35.703Z,-0.43
2023-01-26T21:20:38.123Z,-0.39
2023-01-26T21:23:40.841Z,-0.32
2023-01-26T21:26:43.059Z,-0.28
2023-01-26T21:29:45.488Z,0.04
2023-01-26T21:32:48.314Z,-0.06
2023-01-26T21:35:57.689Z,-0.14
2023-01-26T21:39:00.656Z,-0.16
2023-01-26T21:42:02.968Z,0.02
2023-01-26T21:45:24.510Z,0.19
2023-01-26T21:48:35.750Z,0.19
2023-01-26T21:51:57.468Z,0.20
2023-01-26T21:54:59.712Z,0.23
2023-01-26T21:58:20.705Z,0.28
2023-01-26T22:01:24.303Z,0.16
2023-01-26T22:04:29.124Z,0.19
2023-01-26T22:07:32.239Z,0.33
2023-01-26T22:10:34.456Z,0.34
2023-01-26T22:13:36.912Z,0.32
2023-01-26T22:16:39.285Z,0.12
2023-01-26T22:19:41.442Z,0.25
2023-01-26T22:22:43.600Z,0.46
2023-01-26T22:25:46.201Z,0.56
2023-01-26T22:28:55.443Z,0.37
2023-01-26T22:31:57.656Z,0.47
2023-01-26T22:34:59.878Z,0.52
2023-01-26T22:38:02.104Z,0.39
2023-01-26T22:41:05.536Z,0.32
2023-01-26T22:44:08.051Z,0.23
2023-01-26T22:47:10.205Z,0.02
2023-01-26T22:50:12.734Z,-0.11
2023-01-26T22:53:15.150Z,0.07
2023-01-26T22:56:17.933Z,-0.10
2023-01-26T22:59:20.143Z,-0.15
2023-01-26T23:02:22.347Z,-0.18
2023-01-26T23:05:24.586Z,-0.09
2023-01-26T23:08:27.675Z,-0.11
2023-01-26T23:11:30.443Z,0.02
2023-01-26T23:14:36.747Z,-0.02
2023-01-26T23:17:38.948Z,0.02
2023-01-26T23:20:41.075Z,0.21
2023-01-26T23:23:43.308Z,0.05
2023-01-26T23:26:46.564Z,-0.22
2023-01-26T23:29:48.743Z,-0.18
2023-01-26T23:32:50.952Z,-0.37
2023-01-26T23:35:53.208Z,-0.41
2023-01-26T23:38:55.366Z,-0.42
2023-01-26T23:41:57.576Z,-0.64
2023-01-26T23:44:59.725Z,-0.66
2023-01-26T23:48:02.313Z,-0.58
2023-01-26T23:51:07.369Z,-0.65
2023-01-26T23:54:09.559Z,-0.75
2023-01-26T23:57:11.744Z,-0.70
